createdAt,value
2023-03-16T00:00:19.941Z,86.03
2023-03-16T00:02:47.482Z,85.37
2023-03-16T00:05:15.442Z,85.57
2023-03-16T00:07:44.559Z,86.07
2023-03-16T00:10:13.125Z,85.61
2023-03-16T00:12:43.551Z,85.70
2023-03-16T00:15:11.908Z,85.69
2023-03-16T00:17:39.841Z,86.19
2023-03-16T00:20:08.318Z,86.71
2023-03-16T00:22:35.750Z,87.22
2023-03-16T00:25:05.627Z,86.89
2023-03-16T00:27:33.150Z,87.26
2023-03-16T00:30:03.591Z,86.75
2023-03-16T00:32:34.727Z,86.74
2023-03-16T00:35:03.367Z,86.75
2023-03-16T00:37:32.775Z,86.55
2023-03-16T00:40:00.959Z,86.40
2023-03-16T00:42:31.453Z,87.07
2023-03-16T00:45:00.404Z,86.52
2023-03-16T00:47:30.295Z,86.44
2023-03-16T00:49:58.580Z,86.73
2023-03-16T00:52:27.630Z,86.89
2023-03-16T00:54:55.573Z,86.27
2023-03-16T00:57:25.226Z,86.15
2023-03-16T00:59:54.192Z,86.27
2023-03-16T01:02:24.480Z,86.46
2023-03-16T01:04:54.393Z,86.66
2023-03-16T01:07:22.211Z,86.64
2023-03-16T01:09:49.706Z,86.60
2023-03-16T01:12:19.806Z,86.53
2023-03-16T01:14:47.895Z,86.60
2023-03-16T01:17:17.641Z,85.96
2023-03-16T01:19:46.372Z,85.52
2023-03-16T01:22:15.335Z,85.57
2023-03-16T01:24:45.284Z,85.66
2023-03-16T01:27:13.538Z,85.93
2023-03-16T01:29:43.647Z,85.47
2023-03-16T01:32:12.202Z,85.51
2023-03-16T01:34:41.530Z,86.04
2023-03-16T01:37:09.628Z,85.60
2023-03-16T01:39:46.282Z,85.67
2023-03-16T01:42:15.054Z,85.86
2023-03-16T01:44:55.109Z,85.77
2023-03-16T01:47:24.761Z,85.34
2023-03-16T01:49:57.020Z,85.31
2023-03-16T01:52:33.323Z,85.46
2023-03-16T01:55:04.727Z,85.61
2023-03-16T01:57:37.074Z,85.96
2023-03-16T02:00:18.531Z,86.23
2023-03-16T02:03:07.240Z,86.16
2023-03-16T02:05:52.700Z,86.30
2023-03-16T02:08:23.016Z,85.72
2023-03-16T02:10:54.661Z,85.65
2023-03-16T02:13:24.986Z,85.73
2023-03-16T02:15:53.572Z,85.50
2023-03-16T02:18:24.582Z,85.93
2023-03-16T02:21:02.511Z,86.10
2023-03-16T02:23:32.606Z,85.97
2023-03-16T02:26:07.690Z,86.52
2023-03-16T02:28:48.157Z,86.44
2023-03-16T02:31:17.495Z,85.78
2023-03-16T02:33:47.537Z,86.50
2023-03-16T02:36:15.237Z,86.15
2023-03-16T02:38:42.637Z,87.00
2023-03-16T02:41:12.840Z,87.15
2023-03-16T02:43:43.810Z,86.77
2023-03-16T02:46:23.299Z,86.87
2023-03-16T02:48:57.966Z,86.63
2023-03-16T02:51:25.533Z,86.73
2023-03-16T02:53:54.677Z,86.30
2023-03-16T02:56:22.823Z,86.29
2023-03-16T02:58:51.099Z,86.39
2023-03-16T03:01:21.744Z,85.77
2023-03-16T03:03:49.608Z,85.55
2023-03-16T03:06:17.025Z,86.05
2023-03-16T03:08:44.555Z,86.19
2023-03-16T03:11:12.772Z,85.88
2023-03-16T03:13:43.669Z,86.59
2023-03-16T03:16:15.440Z,86.59
2023-03-16T03:18:44.371Z,86.67
2023-03-16T03:21:11.871Z,86.60
2023-03-16T03:23:40.913Z,86.24
2023-03-16T03:26:08.714Z,86.68
2023-03-16T03:28:36.194Z,86.54
2023-03-16T03:31:03.677Z,87.02
2023-03-16T03:33:33.698Z,86.96
2023-03-16T03:36:02.611Z,86.06
2023-03-16T03:38:35.786Z,86.46
2023-03-16T03:41:04.555Z,86.07
2023-03-16T03:43:34.754Z,86.12
2023-03-16T03:46:04.143Z,86.29
2023-03-16T03:48:34.630Z,86.23
2023-03-16T03:51:05.514Z,86.07
2023-03-16T03:53:58.395Z,85.78
2023-03-16T03:56:40.494Z,86.80
2023-03-16T03:59:12.409Z,86.84
2023-03-16T04:01:58.831Z,86.03
2023-03-16T04:04:33.845Z,86.57
2023-03-16T04:07:02.776Z,86.40
2023-03-16T04:09:33.845Z,86.45
2023-03-16T04:12:02.230Z,86.46
2023-03-16T04:14:30.082Z,86.23
2023-03-16T04:16:57.840Z,86.55
2023-03-16T04:19:25.461Z,86.18
2023-03-16T04:21:55.317Z,86.37
2023-03-16T04:24:24.625Z,85.95
2023-03-16T04:26:54.277Z,85.71
2023-03-16T04:29:21.961Z,85.74
2023-03-16T04:31:49.643Z,85.97
2023-03-16T04:34:17.231Z,85.88
2023-03-16T04:36:44.895Z,85.49
2023-03-16T04:39:12.431Z,86.05
2023-03-16T04:41:41.190Z,85.39
2023-03-16T04:44:14.797Z,85.52
2023-03-16T04:46:42.603Z,85.65
2023-03-16T04:49:11.499Z,85.26
2023-03-16T04:51:42.543Z,85.31
2023-03-16T04:54:14.058Z,85.20
2023-03-16T04:56:45.196Z,85.33
2023-03-16T04:59:31.932Z,85.56
2023-03-16T05:02:14.567Z,85.33
2023-03-16T05:04:42.408Z,85.35
2023-03-16T05:07:12.210Z,85.24
2023-03-16T05:09:43.182Z,84.59
2023-03-16T05:12:12.250Z,84.85
2023-03-16T05:14:40.374Z,85.09
2023-03-16T05:17:19.561Z,84.61
2023-03-16T05:19:48.149Z,84.86
2023-03-16T05:22:16.997Z,84.22
2023-03-16T05:25:04.618Z,84.34
2023-03-16T05:27:34.220Z,83.62
2023-03-16T05:30:02.772Z,83.51
2023-03-16T05:32:32.025Z,83.80
2023-03-16T05:35:10.311Z,83.05
2023-03-16T05:37:38.094Z,82.79
2023-03-16T05:40:16.986Z,82.96
2023-03-16T05:42:54.085Z,82.98
2023-03-16T05:45:22.029Z,82.93
2023-03-16T05:47:59.797Z,83.31
2023-03-16T05:50:28.853Z,82.78
2023-03-16T05:52:56.456Z,83.17
2023-03-16T05:55:25.167Z,82.41
2023-03-16T05:57:58.942Z,82.53
2023-03-16T06:00:27.740Z,82.89
2023-03-16T06:03:07.124Z,82.76
2023-03-16T06:05:36.995Z,82.87
2023-03-16T06:08:05.608Z,82.42
2023-03-16T06:10:33.592Z,83.07
2023-03-16T06:13:02.827Z,82.79
2023-03-16T06:15:30.691Z,82.83
2023-03-16T06:18:00.896Z,82.31
2023-03-16T06:20:28.767Z,81.77
2023-03-16T06:22:57.068Z,81.81
2023-03-16T06:25:24.464Z,81.96
2023-03-16T06:27:52.482Z,81.46
2023-03-16T06:30:21.992Z,81.98
2023-03-16T06:32:49.528Z,82.27
2023-03-16T06:35:17.204Z,81.86
2023-03-16T06:37:52.345Z,81.55
2023-03-16T06:40:41.449Z,81.24
2023-03-16T06:43:09.404Z,81.47
2023-03-16T06:45:38.362Z,81.37
2023-03-16T06:48:07.180Z,81.17
2023-03-16T06:50:34.903Z,81.27
2023-03-16T06:53:02.525Z,80.52
2023-03-16T06:55:32.030Z,79.84
2023-03-16T06:58:01.405Z,80.16
2023-03-16T07:00:30.822Z,79.83
2023-03-16T07:03:00.579Z,79.05
2023-03-16T07:05:29.889Z,79.45
2023-03-16T07:07:58.558Z,78.96
2023-03-16T07:10:26.245Z,79.15
2023-03-16T07:12:55.212Z,78.25
2023-03-16T07:15:25.651Z,78.79
2023-03-16T07:17:55.503Z,78.62
2023-03-16T07:20:24.563Z,77.02
2023-03-16T07:22:52.426Z,76.71
2023-03-16T07:25:20.491Z,76.85
2023-03-16T07:27:52.605Z,76.08
2023-03-16T07:30:25.619Z,76.36
2023-03-16T07:32:53.662Z,76.35
2023-03-16T07:35:24.941Z,75.60
2023-03-16T07:37:52.306Z,75.55
2023-03-16T07:40:21.070Z,75.43
2023-03-16T07:42:49.082Z,75.27
2023-03-16T07:45:26.646Z,74.45
2023-03-16T07:47:54.960Z,74.48
2023-03-16T07:50:35.558Z,74.81
2023-03-16T07:53:02.974Z,73.73
2023-03-16T07:55:31.677Z,73.24
2023-03-16T07:57:59.589Z,73.05
2023-03-16T08:00:33.479Z,72.69
2023-03-16T08:03:02.091Z,72.39
2023-03-16T08:05:34.445Z,71.62
2023-03-16T08:08:09.621Z,71.05
2023-03-16T08:10:40.198Z,70.17
2023-03-16T08:13:12.337Z,69.19
2023-03-16T08:15:46.621Z,68.90
2023-03-16T08:18:23.836Z,68.78
2023-03-16T08:20:52.319Z,69.07
2023-03-16T08:23:22.308Z,68.81
2023-03-16T08:25:52.243Z,68.87
2023-03-16T08:28:21.741Z,68.11
2023-03-16T08:30:51.432Z,67.83
2023-03-16T08:33:31.789Z,67.39
2023-03-16T08:35:59.819Z,67.19
2023-03-16T08:38:28.740Z,67.18
2023-03-16T08:41:02.050Z,66.27
2023-03-16T08:43:29.851Z,65.26
2023-03-16T08:45:59.046Z,65.55
2023-03-16T08:48:36.348Z,64.62
2023-03-16T08:51:05.807Z,64.69
2023-03-16T08:53:35.199Z,63.73
2023-03-16T08:56:04.881Z,63.43
2023-03-16T08:58:34.153Z,63.16
2023-03-16T09:01:02.495Z,63.45
2023-03-16T09:03:30.898Z,63.57
2023-03-16T09:06:02.324Z,63.08
2023-03-16T09:08:30.450Z,62.54
2023-03-16T09:11:03.871Z,61.52
2023-03-16T09:13:31.851Z,61.54
2023-03-16T09:15:59.853Z,60.88
2023-03-16T09:18:27.697Z,60.54
2023-03-16T09:21:00.090Z,59.88
2023-03-16T09:23:27.956Z,59.85
2023-03-16T09:25:59.265Z,59.36
2023-03-16T09:28:29.599Z,58.66
2023-03-16T09:30:57.946Z,59.51
2023-03-16T09:33:26.858Z,59.03
2023-03-16T09:35:57.485Z,57.39
2023-03-16T09:38:28.792Z,57.99
2023-03-16T09:41:00.628Z,57.44
2023-03-16T09:43:43.528Z,57.79
2023-03-16T09:46:15.534Z,56.84
2023-03-16T09:48:43.436Z,57.21
2023-03-16T09:51:20.353Z,57.58
2023-03-16T09:53:53.056Z,57.00
2023-03-16T09:56:30.237Z,57.12
2023-03-16T09:58:59.934Z,56.77
2023-03-16T10:01:40.546Z,57.25
2023-03-16T10:04:24.534Z,56.98
2023-03-16T10:07:03.545Z,56.63
2023-03-16T10:09:36.219Z,56.12
2023-03-16T10:12:07.086Z,57.42
2023-03-16T10:14:44.576Z,55.71
2023-03-16T10:17:17.167Z,55.64
2023-03-16T10:19:49.846Z,54.23
2023-03-16T10:22:22.087Z,55.84
2023-03-16T10:25:01.254Z,52.57
2023-03-16T10:27:31.435Z,53.31
2023-03-16T10:30:02.450Z,53.21
2023-03-16T10:32:34.562Z,54.22
2023-03-16T10:35:07.208Z,52.18
2023-03-16T10:37:35.811Z,53.23
2023-03-16T10:40:09.196Z,51.74
2023-03-16T10:42:37.165Z,51.07
2023-03-16T10:45:07.053Z,51.79
2023-03-16T10:47:34.592Z,51.62
2023-03-16T10:50:18.335Z,53.24
2023-03-16T10:52:48.106Z,51.73
2023-03-16T10:55:20.143Z,50.11
2023-03-16T10:57:51.097Z,51.61
2023-03-16T11:00:25.311Z,50.84
2023-03-16T11:02:54.427Z,52.20
2023-03-16T11:05:31.131Z,51.70
2023-03-16T11:08:01.734Z,50.30
2023-03-16T11:10:33.339Z,50.85
2023-03-16T11:13:06.364Z,50.46
2023-03-16T11:15:42.288Z,49.80
2023-03-16T11:18:20.273Z,50.08
2023-03-16T11:20:48.506Z,49.91
2023-03-16T11:23:29.930Z,49.24
2023-03-16T11:26:01.126Z,48.40
2023-03-16T11:28:36.581Z,46.18
2023-03-16T11:31:13.191Z,46.18
2023-03-16T11:33:40.969Z,48.12
2023-03-16T11:36:32.061Z,46.92
2023-03-16T11:39:07.389Z,46.21
2023-03-16T11:41:46.913Z,44.82
2023-03-16T11:44:21.122Z,43.88
2023-03-16T11:46:57.035Z,43.72
2023-03-16T11:49:44.391Z,45.74
2023-03-16T11:52:17.347Z,43.94
2023-03-16T11:54:56.396Z,44.02
2023-03-16T11:57:33.686Z,42.90
2023-03-16T12:00:21.901Z,42.53
2023-03-16T12:02:59.711Z,44.76
2023-03-16T12:05:45.006Z,42.39
2023-03-16T12:08:40.695Z,41.76
2023-03-16T12:11:10.119Z,42.41
2023-03-16T12:13:52.385Z,39.90
2023-03-16T12:16:33.087Z,40.42
2023-03-16T12:19:15.716Z,40.12
2023-03-16T12:21:48.623Z,38.37
2023-03-16T12:24:20.007Z,39.31
2023-03-16T12:26:49.623Z,38.53
2023-03-16T12:29:28.439Z,39.14
2023-03-16T12:32:03.779Z,40.26
2023-03-16T12:34:40.605Z,38.78
2023-03-16T12:37:30.902Z,38.96
2023-03-16T12:40:20.923Z,38.23
2023-03-16T12:43:05.488Z,39.76
2023-03-16T12:45:40.635Z,38.88
2023-03-16T12:48:19.250Z,39.86
2023-03-16T12:50:51.250Z,39.23
2023-03-16T12:53:27.142Z,38.61
2023-03-16T12:55:57.256Z,38.81
2023-03-16T12:58:27.510Z,39.76
2023-03-16T13:00:58.187Z,38.87
2023-03-16T13:03:27.731Z,39.06
2023-03-16T13:05:59.539Z,39.39
2023-03-16T13:08:30.599Z,38.79
2023-03-16T13:11:08.243Z,39.19
2023-03-16T13:13:48.153Z,37.97
2023-03-16T13:16:25.221Z,39.20
2023-03-16T13:18:53.189Z,39.39
2023-03-16T13:21:33.846Z,37.97
2023-03-16T13:24:14.674Z,38.14
2023-03-16T13:26:46.296Z,36.94
2023-03-16T13:29:25.596Z,36.74
2023-03-16T13:31:54.843Z,37.67
2023-03-16T13:34:26.851Z,37.59
2023-03-16T13:36:58.807Z,37.47
2023-03-16T13:39:28.332Z,38.13
2023-03-16T13:41:59.614Z,38.32
2023-03-16T13:44:28.457Z,37.71
2023-03-16T13:46:56.210Z,38.79
2023-03-16T13:49:23.993Z,37.25
2023-03-16T13:51:52.566Z,36.58
2023-03-16T13:54:24.808Z,36.72
2023-03-16T13:56:55.443Z,37.28
2023-03-16T13:59:22.971Z,35.57
2023-03-16T14:01:57.990Z,36.37
2023-03-16T14:04:28.626Z,36.97
2023-03-16T14:06:57.643Z,36.66
2023-03-16T14:09:29.583Z,35.76
2023-03-16T14:11:57.767Z,36.02
2023-03-16T14:14:29.013Z,36.52
2023-03-16T14:17:02.934Z,36.15
2023-03-16T14:19:34.386Z,35.35
2023-03-16T14:22:04.137Z,36.55
2023-03-16T14:24:35.239Z,35.06
2023-03-16T14:27:21.782Z,36.19
2023-03-16T14:29:58.328Z,36.24
2023-03-16T14:32:30.961Z,36.60
2023-03-16T14:35:10.992Z,37.33
2023-03-16T14:37:41.164Z,38.67
2023-03-16T14:40:22.927Z,38.55
2023-03-16T14:42:52.098Z,37.86
2023-03-16T14:45:21.585Z,38.06
2023-03-16T14:47:50.784Z,38.21
2023-03-16T14:50:23.785Z,38.07
2023-03-16T14:52:53.499Z,38.22
2023-03-16T14:55:23.881Z,39.68
2023-03-16T14:57:51.588Z,38.96
2023-03-16T15:00:21.959Z,38.12
2023-03-16T15:02:57.704Z,38.42
2023-03-16T15:05:32.024Z,39.76
2023-03-16T15:08:00.128Z,38.56
2023-03-16T15:10:31.207Z,37.82
2023-03-16T15:13:12.793Z,39.88
2023-03-16T15:15:42.570Z,40.36
2023-03-16T15:18:10.197Z,38.98
2023-03-16T15:20:41.422Z,38.27
2023-03-16T15:23:14.614Z,37.02
2023-03-16T15:25:44.838Z,37.78
2023-03-16T15:28:15.995Z,37.63
2023-03-16T15:30:44.915Z,37.96
2023-03-16T15:33:13.188Z,37.96
2023-03-16T15:35:41.609Z,39.53
2023-03-16T15:38:12.796Z,39.33
2023-03-16T15:40:44.122Z,40.30
2023-03-16T15:43:12.537Z,40.70
2023-03-16T15:45:40.044Z,40.82
2023-03-16T15:48:09.784Z,41.93
2023-03-16T15:50:40.966Z,40.78
2023-03-16T15:53:29.225Z,41.71
2023-03-16T15:56:03.089Z,42.85
2023-03-16T15:58:32.516Z,43.07
2023-03-16T16:01:01.829Z,42.00
2023-03-16T16:03:29.459Z,42.49
2023-03-16T16:05:57.478Z,43.19
2023-03-16T16:08:24.964Z,43.11
2023-03-16T16:10:53.503Z,43.61
2023-03-16T16:13:26.683Z,43.70
2023-03-16T16:16:09.294Z,43.89
2023-03-16T16:18:37.411Z,44.20
2023-03-16T16:21:06.622Z,44.56
2023-03-16T16:23:34.618Z,44.33
2023-03-16T16:26:04.560Z,45.53
2023-03-16T16:28:34.944Z,44.48
2023-03-16T16:31:04.919Z,45.72
2023-03-16T16:33:34.292Z,46.06
2023-03-16T16:36:04.194Z,46.39
2023-03-16T16:38:38.331Z,46.60
2023-03-16T16:41:09.013Z,47.29
2023-03-16T16:43:41.184Z,46.68
2023-03-16T16:46:15.391Z,47.37
2023-03-16T16:48:46.218Z,47.25
2023-03-16T16:51:18.457Z,47.55
2023-03-16T16:53:47.704Z,47.82
2023-03-16T16:56:17.811Z,48.42
2023-03-16T16:58:46.775Z,47.88
2023-03-16T17:01:20.923Z,48.84
2023-03-16T17:03:48.395Z,49.45
2023-03-16T17:06:17.944Z,49.84
2023-03-16T17:08:46.319Z,50.45
2023-03-16T17:11:19.354Z,50.00
2023-03-16T17:13:49.663Z,50.55
2023-03-16T17:16:18.627Z,50.89
2023-03-16T17:18:47.622Z,51.44
2023-03-16T17:21:17.385Z,51.24
2023-03-16T17:23:44.754Z,51.47
2023-03-16T17:26:16.081Z,51.44
2023-03-16T17:28:47.118Z,51.88
2023-03-16T17:31:21.013Z,52.57
2023-03-16T17:33:50.023Z,52.50
2023-03-16T17:36:19.929Z,52.40
2023-03-16T17:38:47.801Z,53.76
2023-03-16T17:41:23.028Z,53.91
2023-03-16T17:43:51.745Z,54.19
2023-03-16T17:46:23.903Z,53.75
2023-03-16T17:48:52.981Z,54.37
2023-03-16T17:51:21.772Z,54.25
2023-03-16T17:53:49.294Z,54.67
2023-03-16T17:56:19.870Z,54.86
2023-03-16T17:58:49.146Z,54.63
2023-03-16T18:01:17.114Z,54.27
2023-03-16T18:03:46.175Z,55.24
2023-03-16T18:06:18.970Z,55.30
2023-03-16T18:08:48.440Z,55.27
2023-03-16T18:11:19.477Z,55.28
2023-03-16T18:13:48.748Z,55.12
2023-03-16T18:16:19.943Z,54.76
2023-03-16T18:18:49.554Z,54.81
2023-03-16T18:21:21.889Z,55.40
2023-03-16T18:23:49.605Z,55.89
2023-03-16T18:26:18.911Z,55.89
2023-03-16T18:28:48.490Z,55.53
2023-03-16T18:31:22.227Z,55.79
2023-03-16T18:33:53.801Z,55.80
2023-03-16T18:36:32.024Z,56.53
2023-03-16T18:39:02.418Z,56.47
2023-03-16T18:41:33.612Z,56.38
2023-03-16T18:44:06.089Z,57.26
2023-03-16T18:46:35.484Z,56.73
2023-03-16T18:49:13.290Z,56.86
2023-03-16T18:51:42.582Z,56.59
2023-03-16T18:54:20.641Z,56.76
2023-03-16T18:56:48.462Z,56.80
2023-03-16T18:59:16.752Z,56.28
2023-03-16T19:01:45.542Z,56.92
2023-03-16T19:04:19.826Z,56.89
2023-03-16T19:06:47.743Z,57.67
2023-03-16T19:09:19.781Z,57.22
2023-03-16T19:11:47.461Z,57.46
2023-03-16T19:14:17.420Z,57.23
2023-03-16T19:16:45.507Z,57.68
2023-03-16T19:19:14.888Z,58.04
2023-03-16T19:21:43.786Z,57.84
2023-03-16T19:24:19.879Z,57.21
2023-03-16T19:26:47.552Z,57.80
2023-03-16T19:29:15.898Z,57.72
2023-03-16T19:31:43.474Z,57.97
2023-03-16T19:34:16.228Z,58.05
2023-03-16T19:36:45.178Z,57.55
2023-03-16T19:39:13.265Z,58.17
2023-03-16T19:41:41.080Z,58.00
2023-03-16T19:44:14.854Z,58.04
2023-03-16T19:46:43.041Z,57.78
2023-03-16T19:49:15.564Z,58.42
2023-03-16T19:51:43.091Z,57.75
2023-03-16T19:54:21.222Z,58.14
2023-03-16T19:56:48.974Z,57.61
2023-03-16T19:59:16.781Z,57.70
2023-03-16T20:01:44.893Z,57.27
2023-03-16T20:04:15.441Z,57.16
2023-03-16T20:06:42.826Z,57.21
2023-03-16T20:09:10.362Z,57.10
2023-03-16T20:11:39.316Z,56.74
2023-03-16T20:14:16.489Z,56.96
2023-03-16T20:16:44.843Z,56.64
2023-03-16T20:19:13.670Z,57.04
2023-03-16T20:21:41.589Z,57.36
2023-03-16T20:24:15.234Z,56.93
2023-03-16T20:26:45.618Z,57.42
2023-03-16T20:29:21.263Z,57.85
2023-03-16T20:31:48.915Z,57.03
2023-03-16T20:34:22.472Z,57.74
2023-03-16T20:36:50.471Z,57.95
2023-03-16T20:39:17.934Z,58.12
2023-03-16T20:41:46.896Z,58.54
2023-03-16T20:44:15.548Z,58.57
2023-03-16T20:46:44.772Z,59.23
2023-03-16T20:49:29.252Z,59.40
2023-03-16T20:51:56.790Z,58.84
2023-03-16T20:54:24.680Z,59.64
2023-03-16T20:56:53.638Z,59.91
2023-03-16T20:59:24.036Z,59.60
2023-03-16T21:01:54.592Z,59.50
2023-03-16T21:04:25.557Z,59.83
2023-03-16T21:06:53.628Z,59.61
2023-03-16T21:09:22.180Z,60.18
2023-03-16T21:11:49.860Z,60.08
2023-03-16T21:14:22.025Z,59.67
2023-03-16T21:16:49.885Z,60.73
2023-03-16T21:19:19.746Z,60.84
2023-03-16T21:21:47.172Z,59.95
2023-03-16T21:24:14.629Z,60.39
2023-03-16T21:26:43.901Z,60.46
2023-03-16T21:29:15.747Z,60.60
2023-03-16T21:31:44.694Z,61.14
2023-03-16T21:34:18.346Z,61.01
2023-03-16T21:36:45.838Z,61.03
2023-03-16T21:39:18.560Z,61.83
2023-03-16T21:41:47.526Z,61.09
2023-03-16T21:44:14.992Z,60.86
2023-03-16T21:46:44.832Z,60.75
2023-03-16T21:49:12.904Z,61.24
2023-03-16T21:51:42.982Z,61.49
2023-03-16T21:54:13.367Z,61.98
2023-03-16T21:56:41.885Z,61.96
2023-03-16T21:59:09.343Z,61.43
2023-03-16T22:01:50.627Z,61.88
2023-03-16T22:04:27.328Z,62.01
2023-03-16T22:06:54.698Z,61.80
2023-03-16T22:09:29.907Z,62.16
2023-03-16T22:12:03.952Z,61.24
2023-03-16T22:14:31.363Z,61.81
2023-03-16T22:16:58.892Z,61.94
2023-03-16T22:19:27.828Z,62.11
2023-03-16T22:21:56.804Z,62.38
2023-03-16T22:24:26.074Z,62.04
2023-03-16T22:26:54.008Z,62.03
2023-03-16T22:29:23.519Z,62.73
2023-03-16T22:31:53.621Z,62.86
2023-03-16T22:34:30.386Z,62.02
2023-03-16T22:36:58.333Z,62.25
2023-03-16T22:39:25.989Z,61.95
2023-03-16T22:41:53.513Z,62.48
2023-03-16T22:44:23.529Z,62.27
2023-03-16T22:46:50.978Z,62.06
2023-03-16T22:49:21.008Z,61.88
2023-03-16T22:51:51.433Z,62.58
2023-03-16T22:54:21.339Z,62.14
2023-03-16T22:56:48.914Z,62.33
2023-03-16T22:59:19.557Z,61.72
2023-03-16T23:01:49.156Z,61.72
2023-03-16T23:04:19.991Z,62.10
2023-03-16T23:06:51.474Z,62.11
2023-03-16T23:09:20.650Z,61.95
2023-03-16T23:11:53.508Z,62.22
2023-03-16T23:14:23.718Z,61.93
2023-03-16T23:16:54.709Z,61.73
2023-03-16T23:19:25.200Z,61.24
2023-03-16T23:21:56.081Z,61.49
2023-03-16T23:24:24.164Z,62.37
2023-03-16T23:26:53.752Z,61.90
2023-03-16T23:29:22.472Z,61.73
2023-03-16T23:31:50.176Z,62.36
2023-03-16T23:34:20.754Z,61.61
2023-03-16T23:36:48.390Z,61.70
2023-03-16T23:39:18.091Z,61.65
2023-03-16T23:41:47.717Z,61.87
2023-03-16T23:44:19.219Z,62.36
2023-03-16T23:46:47.455Z,62.54
2023-03-16T23:49:19.541Z,62.94
2023-03-16T23:51:47.066Z,63.54
2023-03-16T23:54:19.983Z,63.00
2023-03-16T23:56:47.592Z,63.33
2023-03-16T23:59:15.768Z,63.08
